Hlavní strana
METAR-TAF:

METAR-TAF

Letiště :

Alta, Norsko

zeměpisná šířka: 69-59N, zeměpisná délka: 023-22E, výška: 0 m

Aktuální stav počasí

Zpráva byla vytvořena před 30 minutami, v 12:50 UTC
Jihojihovýchodní vítr 7 kt
Teplota -7°C
Vlhkost vzduchu 62%
Tlak 993 hPa
Viditelnost 10 km a více
Zataženo ve výšce 2800 ft
přeháňky v blízkosti

METAR: ENAT 291250Z 16007KT 9999 VCSH OVC028 M07/M13 Q0993 RMK WIND 700FT 15010KT

Čas: 14:20 (13:20 UTC)

Předpověď počasí

Zpráva byla vytvořena před 5 hodinami a 20 minutami, v 08:00 UTC
Předpověď platná od 29 v 09 UTC do 29 v 14 UTC
Jihojihovýchodní vítr 9 kt
Viditelnost 10 km a více
Skoro jasno ve výšce 2500 ft
Polojasno ve výšce 4000 ft

TAF: ENAT 290800Z 2909/2914 15009KT 9999 FEW025 SCT040

Stav a předpovědi počasí z více než 4 000 letišť (zprávy METAR a TAF).

Červené a žluté tečky na mapě představují dostupné meteorologické stanice.

Když kurzor umístíte na tečku, zobrazí se název stanice.

Pak kliknutím zobrazíte stav a předpověď počasí.

Chcete-li změnit mapu, kliknutím na zelené tlačítko se znaménkem +mapu přiblížíte, kliknutím na zelené tlačítko se znaménkem – mapu oddálíte a kliknutím na zelené šipky přejdete na sousední mapy.


METAR-TAF: